createdAt,value
2023-05-23T00:01:08.697Z,6.22
2023-05-23T00:03:37.828Z,5.75
2023-05-23T00:06:06.995Z,6.75
2023-05-23T00:08:35.210Z,7.35
2023-05-23T00:11:02.912Z,6.82
2023-05-23T00:13:33.632Z,6.80
2023-05-23T00:16:02.751Z,6.10
2023-05-23T00:18:30.821Z,6.32
2023-05-23T00:20:59.414Z,7.05
2023-05-23T00:23:29.884Z,6.15
2023-05-23T00:25:58.726Z,6.80
2023-05-23T00:28:26.968Z,7.47
2023-05-23T00:30:54.594Z,7.00
2023-05-23T00:33:22.839Z,6.25
2023-05-23T00:38:36.048Z,5.72
2023-05-23T00:41:03.863Z,7.28
2023-05-23T00:43:31.850Z,6.63
2023-05-23T00:46:01.072Z,7.88
2023-05-23T00:48:29.922Z,6.80
2023-05-23T00:50:58.735Z,6.80
2023-05-23T00:53:27.209Z,6.65
2023-05-23T00:55:55.334Z,7.78
2023-05-23T00:58:24.289Z,6.57
2023-05-23T01:00:54.642Z,7.15
2023-05-23T01:03:24.039Z,7.55
2023-05-23T01:05:51.998Z,6.65
2023-05-23T01:08:19.861Z,7.15
2023-05-23T01:10:47.800Z,6.28
2023-05-23T01:13:37.451Z,6.53
2023-05-23T01:16:10.144Z,7.82
2023-05-23T01:18:59.329Z,7.40
2023-05-23T01:21:27.750Z,6.68
2023-05-23T01:24:07.861Z,8.43
2023-05-23T01:26:49.284Z,7.35
2023-05-23T01:29:36.489Z,7.85
2023-05-23T01:32:08.508Z,7.50
2023-05-23T01:34:38.577Z,8.45
2023-05-23T01:37:14.870Z,7.57
2023-05-23T01:39:42.786Z,8.13
2023-05-23T01:42:10.904Z,8.85
2023-05-23T01:44:38.810Z,8.05
2023-05-23T01:47:09.993Z,7.45
2023-05-23T01:49:39.190Z,8.20
2023-05-23T01:52:10.012Z,7.32
2023-05-23T01:54:42.702Z,7.88
2023-05-23T01:57:12.168Z,7.78
2023-05-23T01:59:40.078Z,7.55
2023-05-23T02:02:08.177Z,7.63
2023-05-23T02:04:36.257Z,10.35
2023-05-23T02:07:04.012Z,7.43
2023-05-23T02:09:31.722Z,8.27
2023-05-23T02:11:59.841Z,8.50
2023-05-23T02:14:28.604Z,7.45
2023-05-23T02:16:56.524Z,8.15
2023-05-23T02:19:24.631Z,8.38
2023-05-23T02:21:52.273Z,8.27
2023-05-23T02:24:19.963Z,8.48
2023-05-23T02:26:47.528Z,8.20
2023-05-23T02:29:15.186Z,7.82
2023-05-23T02:31:42.930Z,8.10
2023-05-23T02:34:10.887Z,8.90
2023-05-23T02:36:39.519Z,8.45
2023-05-23T02:39:07.672Z,9.48
2023-05-23T02:41:35.533Z,9.52
2023-05-23T02:44:03.431Z,9.07
2023-05-23T02:46:31.228Z,9.43
2023-05-23T02:48:58.923Z,8.48
2023-05-23T02:51:27.683Z,10.02
2023-05-23T02:53:55.624Z,9.75
2023-05-23T02:56:23.815Z,8.70
2023-05-23T02:58:52.755Z,9.20
2023-05-23T03:01:20.593Z,8.75
2023-05-23T03:03:48.497Z,8.18
2023-05-23T03:06:17.088Z,9.20
2023-05-23T03:08:45.218Z,9.20
2023-05-23T03:11:12.872Z,8.82
2023-05-23T03:13:40.481Z,8.70
2023-05-23T03:16:08.074Z,8.82
2023-05-23T03:18:36.033Z,9.68
2023-05-23T03:21:03.819Z,9.32
2023-05-23T03:23:31.554Z,9.02
2023-05-23T03:25:59.994Z,9.10
2023-05-23T03:28:28.321Z,7.97
2023-05-23T03:30:55.970Z,8.85
2023-05-23T03:33:23.586Z,8.48
2023-05-23T03:35:51.653Z,8.10
2023-05-23T03:38:19.544Z,8.60
2023-05-23T03:40:47.447Z,7.93
2023-05-23T03:43:16.106Z,7.80
2023-05-23T03:45:45.081Z,8.13
2023-05-23T03:48:16.940Z,8.93
2023-05-23T03:50:44.869Z,7.88
2023-05-23T03:53:13.177Z,7.40
2023-05-23T03:55:42.543Z,8.13
2023-05-23T03:58:10.724Z,8.00
2023-05-23T04:00:41.008Z,8.15
2023-05-23T04:03:10.860Z,6.88
2023-05-23T04:05:40.994Z,8.20
2023-05-23T04:08:10.150Z,7.78
2023-05-23T04:10:37.922Z,7.63
2023-05-23T04:13:06.607Z,7.75
2023-05-23T04:15:34.482Z,7.18
2023-05-23T04:18:09.421Z,8.25
2023-05-23T04:20:37.853Z,6.90
2023-05-23T04:23:06.215Z,7.15
2023-05-23T04:25:36.927Z,7.15
2023-05-23T04:28:15.144Z,7.18
2023-05-23T04:30:44.816Z,7.38
2023-05-23T04:33:13.537Z,6.40
2023-05-23T04:35:41.933Z,6.80
2023-05-23T04:38:10.352Z,5.90
2023-05-23T04:40:38.415Z,6.85
2023-05-23T04:43:20.058Z,6.93
2023-05-23T04:45:57.878Z,6.68
2023-05-23T04:48:38.964Z,6.97
2023-05-23T04:51:08.632Z,6.63
2023-05-23T04:53:41.688Z,7.20
2023-05-23T04:56:11.171Z,6.78
2023-05-23T04:58:42.226Z,6.95
2023-05-23T05:01:12.073Z,6.43
2023-05-23T05:03:40.236Z,6.90
2023-05-23T05:06:08.343Z,7.07
2023-05-23T05:08:37.065Z,7.38
2023-05-23T05:11:05.581Z,7.15
2023-05-23T05:13:33.675Z,7.40
2023-05-23T05:16:01.853Z,7.82
2023-05-23T05:18:30.607Z,8.50
2023-05-23T05:20:59.813Z,6.85
2023-05-23T05:23:29.077Z,6.22
2023-05-23T05:25:57.766Z,6.05
2023-05-23T05:28:25.398Z,5.47
2023-05-23T05:30:54.697Z,5.40
2023-05-23T05:33:28.554Z,4.97
2023-05-23T05:36:14.188Z,5.45
2023-05-23T05:38:42.508Z,4.63
2023-05-23T05:41:10.546Z,5.40
2023-05-23T05:43:43.191Z,5.75
2023-05-23T05:46:11.655Z,4.70
2023-05-23T05:48:39.388Z,5.30
2023-05-23T05:51:09.618Z,4.85
2023-05-23T05:53:37.645Z,5.20
2023-05-23T05:56:06.253Z,5.40
2023-05-23T05:58:34.084Z,5.43
2023-05-23T06:01:05.834Z,5.25
2023-05-23T06:03:34.433Z,4.93
2023-05-23T06:06:02.446Z,5.38
2023-05-23T06:08:30.562Z,4.95
2023-05-23T06:10:58.371Z,5.45
2023-05-23T06:13:27.307Z,5.28
2023-05-23T06:15:55.756Z,5.20
2023-05-23T06:18:24.596Z,6.97
2023-05-23T06:20:53.094Z,5.65
2023-05-23T06:23:22.562Z,5.72
2023-05-23T06:25:50.513Z,5.80
2023-05-23T06:28:18.283Z,7.03
2023-05-23T06:30:47.307Z,5.75
2023-05-23T06:33:16.337Z,4.80
2023-05-23T06:35:44.003Z,5.82
2023-05-23T06:38:11.698Z,5.80
2023-05-23T06:40:41.641Z,5.90
2023-05-23T06:43:11.203Z,5.47
2023-05-23T06:45:47.891Z,5.03
2023-05-23T06:48:16.337Z,5.28
2023-05-23T06:50:45.937Z,5.28
2023-05-23T06:53:13.743Z,5.47
2023-05-23T06:55:42.757Z,5.30
2023-05-23T06:58:13.554Z,5.20
2023-05-23T07:00:41.557Z,5.40
2023-05-23T07:03:16.792Z,4.47
2023-05-23T07:05:45.020Z,5.38
2023-05-23T07:08:16.034Z,4.82
2023-05-23T07:10:56.076Z,4.00
2023-05-23T07:13:31.560Z,3.85
2023-05-23T07:16:00.103Z,4.00
2023-05-23T07:18:27.944Z,4.68
2023-05-23T07:20:57.400Z,4.18
2023-05-23T07:23:25.892Z,4.28
2023-05-23T07:26:01.801Z,4.53
2023-05-23T07:28:40.692Z,4.38
2023-05-23T07:31:10.118Z,4.95
2023-05-23T07:33:39.006Z,4.55
2023-05-23T07:36:08.848Z,3.85
2023-05-23T07:38:36.577Z,4.38
2023-05-23T07:41:11.470Z,3.85
2023-05-23T07:43:40.923Z,3.05
2023-05-23T07:46:09.091Z,3.30
2023-05-23T07:48:38.392Z,3.92
2023-05-23T07:51:06.227Z,3.63
2023-05-23T07:53:35.087Z,4.00
2023-05-23T07:56:04.638Z,3.85
2023-05-23T07:58:37.464Z,3.22
2023-05-23T08:01:05.709Z,3.30
2023-05-23T08:03:52.056Z,3.58
2023-05-23T08:06:26.634Z,4.28
2023-05-23T08:08:56.151Z,3.95
2023-05-23T08:14:17.709Z,4.10
2023-05-23T08:16:55.646Z,3.72
2023-05-23T08:19:27.069Z,4.45
2023-05-23T08:21:55.055Z,4.05
2023-05-23T08:24:22.754Z,4.07
2023-05-23T08:26:50.999Z,3.80
2023-05-23T08:29:19.577Z,4.32
2023-05-23T08:31:47.982Z,3.60
2023-05-23T08:34:17.231Z,3.83
2023-05-23T08:36:46.002Z,3.65
2023-05-23T08:39:18.826Z,3.90
2023-05-23T08:41:53.704Z,3.55
2023-05-23T08:44:21.531Z,3.13
2023-05-23T08:46:54.294Z,3.28
2023-05-23T08:49:49.234Z,3.25
2023-05-23T08:52:22.268Z,3.90
2023-05-23T08:54:53.282Z,3.80
2023-05-23T08:57:21.255Z,3.03
2023-05-23T08:59:55.301Z,3.40
2023-05-23T09:02:25.089Z,4.28
2023-05-23T09:04:59.828Z,3.58
2023-05-23T09:07:29.256Z,2.85
2023-05-23T09:09:58.530Z,3.00
2023-05-23T09:12:26.353Z,3.45
2023-05-23T09:14:54.002Z,3.17
2023-05-23T09:17:24.317Z,3.60
2023-05-23T09:19:53.186Z,4.07
2023-05-23T09:22:41.868Z,4.25
2023-05-23T09:25:15.722Z,3.17
2023-05-23T09:30:40.002Z,3.33
2023-05-23T09:33:09.095Z,3.22
2023-05-23T09:35:44.494Z,4.03
2023-05-23T09:38:12.847Z,2.92
2023-05-23T09:40:45.612Z,3.20
2023-05-23T09:43:17.504Z,2.90
2023-05-23T09:45:45.915Z,3.03
2023-05-23T09:48:16.101Z,3.20
2023-05-23T09:50:47.213Z,3.00
2023-05-23T09:53:16.298Z,3.25
2023-05-23T09:55:45.136Z,3.47
2023-05-23T09:58:13.987Z,3.83
2023-05-23T10:00:42.029Z,3.55
2023-05-23T10:03:13.927Z,4.35
2023-05-23T10:05:49.227Z,3.95
2023-05-23T10:08:30.220Z,4.10
2023-05-23T10:10:57.995Z,3.70
2023-05-23T10:13:27.321Z,3.67
2023-05-23T10:16:14.270Z,4.70
2023-05-23T10:18:45.686Z,8.13
2023-05-23T10:21:19.030Z,4.38
2023-05-23T10:23:48.854Z,3.47
2023-05-23T10:26:18.048Z,3.85
2023-05-23T10:28:50.111Z,3.60
2023-05-23T10:31:17.984Z,3.70
2023-05-23T10:33:53.596Z,3.47
2023-05-23T10:36:33.970Z,3.40
2023-05-23T10:39:27.081Z,4.22
2023-05-23T10:42:03.346Z,3.92
2023-05-23T10:44:31.410Z,4.00
2023-05-23T10:47:04.694Z,4.00
2023-05-23T10:49:40.068Z,4.10
2023-05-23T10:52:09.204Z,4.38
2023-05-23T10:54:45.045Z,4.30
2023-05-23T10:57:17.438Z,4.50
2023-05-23T10:59:47.194Z,5.22
2023-05-23T11:02:17.177Z,5.07
2023-05-23T11:04:45.928Z,6.22
2023-05-23T11:07:32.470Z,4.70
2023-05-23T11:10:11.626Z,5.97
2023-05-23T11:12:42.546Z,5.40
2023-05-23T11:15:21.668Z,6.28
2023-05-23T11:17:57.752Z,6.20
2023-05-23T11:20:28.345Z,5.15
2023-05-23T11:23:04.163Z,6.30
2023-05-23T11:25:54.039Z,6.45
2023-05-23T11:28:21.986Z,6.03
2023-05-23T11:30:50.014Z,6.68
2023-05-23T11:33:18.911Z,6.35
2023-05-23T11:35:48.389Z,6.70
2023-05-23T11:38:17.139Z,6.50
2023-05-23T11:40:46.595Z,6.38
2023-05-23T11:43:16.912Z,6.25
2023-05-23T11:45:48.316Z,6.72
2023-05-23T11:48:18.021Z,6.80
2023-05-23T11:50:50.806Z,6.70
2023-05-23T11:53:22.380Z,7.68
2023-05-23T11:55:55.682Z,7.25
2023-05-23T11:58:27.177Z,6.55
2023-05-23T12:01:06.474Z,6.75
2023-05-23T12:03:36.080Z,6.45
2023-05-23T12:06:04.006Z,6.60
2023-05-23T12:08:31.528Z,7.20
2023-05-23T12:11:01.474Z,7.20
2023-05-23T12:13:30.453Z,6.32
2023-05-23T12:16:03.141Z,6.90
2023-05-23T12:18:32.778Z,5.70
2023-05-23T12:21:03.275Z,6.35
2023-05-23T12:23:34.771Z,6.25
2023-05-23T12:26:07.920Z,6.85
2023-05-23T12:28:38.230Z,7.85
2023-05-23T12:31:27.382Z,9.60
2023-05-23T12:33:55.186Z,17.25
2023-05-23T12:36:26.388Z,7.88
2023-05-23T12:38:54.404Z,8.23
2023-05-23T12:41:22.342Z,10.65
2023-05-23T12:43:52.400Z,7.45
2023-05-23T12:46:22.188Z,5.60
2023-05-23T12:48:50.122Z,7.85
2023-05-23T12:51:18.066Z,6.97
2023-05-23T12:53:45.955Z,6.97
2023-05-23T12:56:13.713Z,7.45
2023-05-23T12:58:41.503Z,6.30
2023-05-23T13:01:09.420Z,6.85
2023-05-23T13:03:38.553Z,6.25
2023-05-23T13:06:06.990Z,6.97
2023-05-23T13:08:34.639Z,6.43
2023-05-23T13:11:02.989Z,5.80
2023-05-23T13:13:30.799Z,6.68
2023-05-23T13:15:58.504Z,5.78
2023-05-23T13:18:26.368Z,5.15
2023-05-23T13:20:54.176Z,5.20
2023-05-23T13:23:21.819Z,5.68
2023-05-23T13:25:51.287Z,5.85
2023-05-23T13:28:19.202Z,6.25
2023-05-23T13:30:47.472Z,5.60
2023-05-23T13:33:15.646Z,5.82
2023-05-23T13:35:44.289Z,5.38
2023-05-23T13:38:12.876Z,5.13
2023-05-23T13:40:40.891Z,6.30
2023-05-23T13:43:09.070Z,7.82
2023-05-23T13:45:36.957Z,7.88
2023-05-23T13:48:04.808Z,6.85
2023-05-23T13:50:32.552Z,8.00
2023-05-23T13:53:00.317Z,10.77
2023-05-23T13:55:27.947Z,6.93
2023-05-23T13:57:55.836Z,6.38
2023-05-23T14:00:23.523Z,6.22
2023-05-23T14:02:51.470Z,6.35
2023-05-23T14:05:19.707Z,6.25
2023-05-23T14:07:47.601Z,6.28
2023-05-23T14:10:17.448Z,5.78
2023-05-23T14:12:45.432Z,5.75
2023-05-23T14:15:13.042Z,5.65
2023-05-23T14:17:40.869Z,7.72
2023-05-23T14:20:09.249Z,8.18
2023-05-23T14:22:36.910Z,6.25
2023-05-23T14:25:04.899Z,5.38
2023-05-23T14:27:34.154Z,5.03
2023-05-23T14:30:01.903Z,5.93
2023-05-23T14:32:38.923Z,5.85
2023-05-23T14:35:08.749Z,5.60
2023-05-23T14:37:36.745Z,5.65
2023-05-23T14:40:05.905Z,5.72
2023-05-23T14:42:34.189Z,6.15
2023-05-23T14:45:02.004Z,5.55
2023-05-23T14:47:32.719Z,5.65
2023-05-23T14:50:00.583Z,4.85
2023-05-23T14:52:28.450Z,5.88
2023-05-23T14:54:56.120Z,6.30
2023-05-23T14:57:24.171Z,5.00
2023-05-23T14:59:51.833Z,8.70
2023-05-23T15:02:20.121Z,6.13
2023-05-23T15:04:48.853Z,7.50
2023-05-23T15:07:18.387Z,5.88
2023-05-23T15:09:47.914Z,6.43
2023-05-23T15:12:15.800Z,5.50
2023-05-23T15:14:43.659Z,5.95
2023-05-23T15:17:13.151Z,7.70
2023-05-23T15:19:43.242Z,6.32
2023-05-23T15:22:15.534Z,5.78
2023-05-23T15:24:50.236Z,5.70
2023-05-23T15:27:20.909Z,5.20
2023-05-23T15:29:48.937Z,8.02
2023-05-23T15:32:16.897Z,6.95
2023-05-23T15:34:45.211Z,7.50
2023-05-23T15:37:12.824Z,5.90
2023-05-23T15:39:40.562Z,6.38
2023-05-23T15:42:08.242Z,7.68
2023-05-23T15:44:35.934Z,6.63
2023-05-23T15:47:03.709Z,6.15
2023-05-23T15:49:31.353Z,5.95
2023-05-23T15:51:58.949Z,5.70
2023-05-23T15:54:26.792Z,6.82
2023-05-23T15:56:54.418Z,7.72
2023-05-23T15:59:22.037Z,8.73
2023-05-23T16:01:49.621Z,7.78
2023-05-23T16:04:17.417Z,7.90
2023-05-23T16:06:45.026Z,7.00
2023-05-23T16:09:12.708Z,6.75
2023-05-23T16:11:40.392Z,9.18
2023-05-23T16:14:08.301Z,11.70
2023-05-23T16:16:36.045Z,7.95
2023-05-23T16:19:03.719Z,8.25
2023-05-23T16:21:32.319Z,10.60
2023-05-23T16:24:00.067Z,7.45
2023-05-23T16:26:28.298Z,7.32
2023-05-23T16:28:56.004Z,6.43
2023-05-23T16:31:28.733Z,6.00
2023-05-23T16:33:56.334Z,5.65
2023-05-23T16:36:23.922Z,6.45
2023-05-23T16:38:52.968Z,6.20
2023-05-23T16:41:22.505Z,6.07
2023-05-23T16:43:50.116Z,5.90
2023-05-23T16:46:20.290Z,5.68
2023-05-23T16:48:48.797Z,5.20
2023-05-23T16:51:16.580Z,6.00
2023-05-23T16:53:44.443Z,6.13
2023-05-23T16:56:12.071Z,5.82
2023-05-23T16:58:39.783Z,4.78
2023-05-23T17:01:08.667Z,4.85
2023-05-23T17:03:36.517Z,4.95
2023-05-23T17:06:04.325Z,6.45
2023-05-23T17:08:32.052Z,9.98
2023-05-23T17:10:59.658Z,5.45
2023-05-23T17:13:27.689Z,5.60
2023-05-23T17:15:55.279Z,5.20
2023-05-23T17:18:23.444Z,7.03
2023-05-23T17:20:51.136Z,6.90
2023-05-23T17:23:19.264Z,4.93
2023-05-23T17:25:47.036Z,5.60
2023-05-23T17:28:14.723Z,7.10
2023-05-23T17:30:42.347Z,5.82
2023-05-23T17:33:11.622Z,6.10
2023-05-23T17:35:39.686Z,8.80
2023-05-23T17:38:08.903Z,7.28
2023-05-23T17:40:37.362Z,6.57
2023-05-23T17:43:05.062Z,6.72
2023-05-23T17:45:32.681Z,6.25
2023-05-23T17:48:03.556Z,6.28
2023-05-23T17:50:31.495Z,7.03
2023-05-23T17:52:59.729Z,8.38
2023-05-23T17:55:28.227Z,6.35
2023-05-23T17:58:00.379Z,5.80
2023-05-23T18:00:28.910Z,5.63
2023-05-23T18:02:56.635Z,6.35
2023-05-23T18:05:24.366Z,5.75
2023-05-23T18:07:51.895Z,5.93
2023-05-23T18:10:19.741Z,6.10
2023-05-23T18:12:48.043Z,5.78
2023-05-23T18:15:16.043Z,6.38
2023-05-23T18:17:54.225Z,5.90
2023-05-23T18:20:22.878Z,6.80
2023-05-23T18:22:55.489Z,6.38
2023-05-23T18:25:28.223Z,6.32
2023-05-23T18:27:58.785Z,6.75
2023-05-23T18:30:27.242Z,6.82
2023-05-23T18:32:55.884Z,6.82
2023-05-23T18:35:25.726Z,7.15
2023-05-23T18:37:54.487Z,6.70
2023-05-23T18:40:27.284Z,6.25
2023-05-23T18:42:55.100Z,7.50
2023-05-23T18:45:23.025Z,6.70
2023-05-23T18:47:51.394Z,6.88
2023-05-23T18:50:20.429Z,6.82
2023-05-23T18:52:48.162Z,6.88
2023-05-23T18:55:17.050Z,6.50
2023-05-23T18:57:44.666Z,6.18
2023-05-23T19:00:13.246Z,6.30
2023-05-23T19:02:44.543Z,6.03
2023-05-23T19:05:12.993Z,6.53
2023-05-23T19:07:40.878Z,6.50
2023-05-23T19:10:08.823Z,5.95
2023-05-23T19:12:39.525Z,6.45
2023-05-23T19:15:10.894Z,5.78
2023-05-23T19:17:43.112Z,6.13
2023-05-23T19:20:18.568Z,5.55
2023-05-23T19:22:51.851Z,6.28
2023-05-23T19:25:21.766Z,5.68
2023-05-23T19:27:49.628Z,6.38
2023-05-23T19:30:17.230Z,7.13
2023-05-23T19:32:45.233Z,5.93
2023-05-23T19:35:17.051Z,5.97
2023-05-23T19:37:45.713Z,6.03
2023-05-23T19:40:13.636Z,5.60
2023-05-23T19:42:41.517Z,5.82
2023-05-23T19:45:09.970Z,5.40
2023-05-23T19:47:37.909Z,5.90
2023-05-23T19:50:12.997Z,6.60
2023-05-23T19:52:42.132Z,5.60
2023-05-23T19:55:10.554Z,4.63
2023-05-23T19:57:38.171Z,4.80
2023-05-23T20:00:06.499Z,4.70
2023-05-23T20:02:35.649Z,5.90
2023-05-23T20:05:03.284Z,6.13
2023-05-23T20:07:32.550Z,5.97
2023-05-23T20:10:00.208Z,7.60
2023-05-23T20:12:27.799Z,7.57
2023-05-23T20:14:55.912Z,6.95
2023-05-23T20:17:23.861Z,5.57
2023-05-23T20:19:51.550Z,6.15
2023-05-23T20:22:19.157Z,5.85
2023-05-23T20:24:47.023Z,6.22
2023-05-23T20:27:16.130Z,6.10
2023-05-23T20:29:43.914Z,5.90
2023-05-23T20:32:11.504Z,6.40
2023-05-23T20:34:39.298Z,6.47
2023-05-23T20:37:06.969Z,6.47
2023-05-23T20:39:35.008Z,6.60
2023-05-23T20:42:02.676Z,6.13
2023-05-23T20:44:30.358Z,6.57
2023-05-23T20:46:57.938Z,5.47
2023-05-23T20:49:27.039Z,6.32
2023-05-23T20:51:54.704Z,6.15
2023-05-23T20:54:22.335Z,5.63
2023-05-23T20:56:52.653Z,6.45
2023-05-23T20:59:26.341Z,5.88
2023-05-23T21:01:54.071Z,5.57
2023-05-23T21:04:21.775Z,9.73
2023-05-23T21:06:49.670Z,5.80
2023-05-23T21:09:17.399Z,5.15
2023-05-23T21:11:45.003Z,7.28
2023-05-23T21:14:14.002Z,5.45
2023-05-23T21:16:41.728Z,9.40
2023-05-23T21:19:09.467Z,5.68
2023-05-23T21:21:37.730Z,7.93
2023-05-23T21:24:06.494Z,9.75
2023-05-23T21:26:34.167Z,7.20
2023-05-23T21:29:01.871Z,6.15
2023-05-23T21:31:40.378Z,5.88
2023-05-23T21:34:22.500Z,6.18
2023-05-23T21:36:52.823Z,6.15
2023-05-23T21:39:21.009Z,6.10
2023-05-23T21:41:48.688Z,6.20
2023-05-23T21:44:17.821Z,8.45
2023-05-23T21:46:45.873Z,8.40
2023-05-23T21:49:13.725Z,6.47
2023-05-23T21:51:42.160Z,6.70
2023-05-23T21:54:10.017Z,7.03
2023-05-23T21:56:37.696Z,6.35
2023-05-23T21:59:05.594Z,6.13
2023-05-23T22:01:33.323Z,6.85
2023-05-23T22:04:01.553Z,7.75
2023-05-23T22:06:29.605Z,5.82
2023-05-23T22:08:57.255Z,5.60
2023-05-23T22:11:29.648Z,6.90
2023-05-23T22:13:57.396Z,9.20
2023-05-23T22:16:26.106Z,6.10
2023-05-23T22:18:54.125Z,6.20
2023-05-23T22:21:21.829Z,6.60
2023-05-23T22:23:49.529Z,6.45
2023-05-23T22:26:17.859Z,6.57
2023-05-23T22:28:46.297Z,6.75
2023-05-23T22:31:14.848Z,6.40
2023-05-23T22:33:42.801Z,6.63
2023-05-23T22:36:10.675Z,6.40
2023-05-23T22:38:38.401Z,7.40
2023-05-23T22:41:06.149Z,6.82
2023-05-23T22:43:33.867Z,6.75
2023-05-23T22:46:01.701Z,6.32
2023-05-23T22:48:34.155Z,9.00
2023-05-23T22:51:03.118Z,8.70
2023-05-23T22:53:31.278Z,7.57
2023-05-23T22:55:59.265Z,7.82
2023-05-23T22:58:27.123Z,7.60
2023-05-23T23:00:54.700Z,6.68
2023-05-23T23:03:22.569Z,8.43
2023-05-23T23:05:50.711Z,6.57
2023-05-23T23:08:19.504Z,7.07
2023-05-23T23:10:47.345Z,7.00
2023-05-23T23:13:15.108Z,7.38
2023-05-23T23:15:43.241Z,7.25
2023-05-23T23:18:13.862Z,6.88
2023-05-23T23:20:42.009Z,6.97
2023-05-23T23:23:09.916Z,7.22
2023-05-23T23:25:37.991Z,7.93
2023-05-23T23:28:06.116Z,6.05
2023-05-23T23:30:33.829Z,7.00
2023-05-23T23:33:01.605Z,6.60
2023-05-23T23:35:29.456Z,6.90
2023-05-23T23:37:57.194Z,6.20
2023-05-23T23:40:24.877Z,6.47
2023-05-23T23:42:52.551Z,6.32
2023-05-23T23:45:20.594Z,6.10
2023-05-23T23:47:48.230Z,5.82
2023-05-23T23:50:15.978Z,5.95
2023-05-23T23:52:44.028Z,6.03
2023-05-23T23:55:11.665Z,6.03
2023-05-23T23:57:39.279Z,5.57
